Time;durP1;ratioP1;P1;durP2;ratioP2;P2;SDS_P1;SDS_P2;PMS_P1;PMS_P2;Temp;Humidity;BMP_temperature;BMP_pressure;BME280_temperature;BME280_humidity;BME280_pressure;Samples;Min_cycle;Max_cycle;Signal;HPM_P1;HPM_P2
2023/02/04 09:31:24;;;;;;;34.70;21.53;;;;;;;;;;5132767;27;20616;-77
2023/02/04 09:43:06;;;;;;;25.30;16.00;;;2.80;99.90;;;;;;5131960;27;20790;-77
2023/02/04 09:48:13;;;;;;;62.17;37.20;;;2.90;99.90;;;;;;5132335;27;20282;-77
2023/02/04 09:52:23;;;;;;;28.77;16.93;;;3.10;99.90;;;;;;5091176;28;20553;-78
2023/02/04 09:57:32;;;;;;;31.40;14.30;;;3.20;99.90;;;;;;5132665;27;20267;-77
2023/02/04 10:02:19;;;;;;;23.97;11.57;;;3.40;99.90;;;;;;5132221;27;20271;-75
2023/02/04 10:05:50;;;;;;;14.20;6.63;;;3.50;99.90;;;;;;5132490;27;20272;-77
2023/02/04 10:10:17;;;;;;;12.70;5.97;;;3.50;99.90;;;;;;5132578;27;20609;-76
2023/02/04 10:15:22;;;;;;;12.57;4.97;;;3.60;99.90;;;;;;5132561;27;20275;-76
2023/02/04 10:21:15;;;;;;;13.37;6.67;;;3.70;99.90;;;;;;5132601;27;20277;-76
2023/02/04 10:32:47;;;;;;;24.27;11.10;;;3.50;99.90;;;;;;5152624;27;20287;-75
2023/02/04 10:39:49;;;;;;;16.00;6.13;;;3.50;99.90;;;;;;5132462;27;20747;-75
2023/02/04 10:44:46;;;;;;;15.17;6.03;;;3.80;99.90;;;;;;5131899;27;20271;-75
2023/02/04 10:50:38;;;;;;;12.17;7.43;;;3.80;99.90;;;;;;5091685;28;20265;-75
2023/02/04 10:55:02;;;;;;;9.30;4.87;;;4.00;99.90;;;;;;5132527;27;20274;-76
2023/02/04 10:59:25;;;;;;;10.27;5.53;;;4.10;99.90;;;;;;5134994;27;20284;-78
2023/02/04 11:03:24;;;;;;;11.63;6.57;;;4.10;99.90;;;;;;5134002;27;20764;-78
2023/02/04 11:07:29;;;;;;;9.43;4.50;;;4.10;99.90;;;;;;5136778;27;20277;-78
2023/02/04 11:13:05;;;;;;;10.77;4.83;;;4.00;99.90;;;;;;5140414;27;20289;-78
2023/02/04 11:22:22;;;;;;;11.23;5.83;;;3.90;99.90;;;;;;5142888;27;20280;-79
2023/02/04 11:30:35;;;;;;;12.27;4.40;;;3.90;99.90;;;;;;5158539;27;20274;-79
2023/02/04 11:39:51;;;;;;;10.60;5.33;;;3.80;99.90;;;;;;5116278;27;20296;-79
2023/02/04 11:47:16;;;;;;;10.97;6.20;;;3.90;99.90;;;;;;5140094;27;20276;-79
2023/02/04 11:55:26;;;;;;;11.03;6.07;;;3.90;99.90;;;;;;5136920;27;20268;-80
2023/02/04 12:02:54;;;;;;;18.67;4.40;;;4.00;99.90;;;;;;5139371;27;20290;-79
2023/02/04 12:08:30;;;;;;;11.20;4.33;;;4.00;99.90;;;;;;5135762;27;20286;-79
2023/02/04 12:14:11;;;;;;;13.33;4.20;;;4.10;99.90;;;;;;5143455;27;20664;-80
2023/02/04 12:20:20;;;;;;;10.33;4.37;;;4.20;99.90;;;;;;5139201;27;20277;-81
2023/02/04 12:26:55;;;;;;;8.07;3.43;;;4.40;99.90;;;;;;5139909;27;20704;-79
2023/02/04 12:35:25;;;;;;;7.57;2.40;;;4.30;99.90;;;;;;5139958;27;20736;-79
2023/02/04 12:42:21;;;;;;;8.67;5.60;;;4.20;99.90;;;;;;5139247;27;20298;-80
2023/02/04 12:49:19;;;;;;;10.40;2.90;;;4.30;99.90;;;;;;5139596;27;20276;-80
2023/02/04 12:56:19;;;;;;;15.53;6.93;;;4.40;99.90;;;;;;5118896;27;20272;-79
2023/02/04 13:02:03;;;;;;;11.17;5.17;;;4.50;99.90;;;;;;5138903;27;20287;-81
2023/02/04 13:08:47;;;;;;;11.97;4.30;;;4.60;99.90;;;;;;5139213;27;20283;-79
2023/02/04 13:13:27;;;;;;;9.43;4.23;;;4.60;99.90;;;;;;5118999;27;20290;-79
2023/02/04 13:17:52;;;;;;;14.93;10.23;;;4.50;99.90;;;;;;5139531;27;20281;-79
2023/02/04 13:21:52;;;;;;;6.37;3.60;;;4.60;99.90;;;;;;5138602;27;20273;-80
2023/02/04 13:26:46;;;;;;;16.13;6.33;;;4.60;99.90;;;;;;5139119;27;20275;-80
2023/02/04 13:32:10;;;;;;;6.67;2.90;;;4.70;99.90;;;;;;5117428;27;20943;-79
2023/02/04 13:36:49;;;;;;;107.47;55.80;;;4.80;99.90;;;;;;5140528;27;20743;-79
2023/02/04 13:41:52;;;;;;;13.93;6.43;;;4.90;99.90;;;;;;5141008;27;20280;-80
2023/02/04 13:46:56;;;;;;;12.50;4.60;;;4.80;99.90;;;;;;5142103;27;20268;-80
2023/02/04 13:50:44;;;;;;;8.73;3.40;;;4.80;99.90;;;;;;5141167;27;20282;-79
2023/02/04 13:54:18;;;;;;;5.73;2.50;;;4.90;99.90;;;;;;5122166;27;20380;-80
2023/02/04 13:56:44;;;;;;;7.60;2.23;;;4.90;99.90;;;;;;5121679;28;20182;-79
2023/02/04 13:59:09;;;;;;;8.03;3.13;;;4.90;99.90;;;;;;5128662;28;20185;-80
2023/02/04 14:01:35;;;;;;;5.40;2.47;;;5.00;99.90;;;;;;5117309;28;20230;-80
2023/02/04 14:04:01;;;;;;;6.83;2.50;;;5.00;99.90;;;;;;5117821;28;20183;-80
2023/02/04 14:06:32;;;;;;;8.63;3.30;;;5.00;99.90;;;;;;5115630;28;20198;-79
2023/02/04 14:09:01;;;;;;;7.33;3.20;;;5.10;99.90;;;;;;5113916;28;20149;-79
2023/02/04 14:11:27;;;;;;;6.53;2.33;;;5.10;99.90;;;;;;5115795;28;20234;-81
2023/02/04 14:13:53;;;;;;;6.60;2.67;;;4.90;99.90;;;;;;5115923;28;20207;-79
2023/02/04 14:16:19;;;;;;;5.40;2.43;;;4.90;99.90;;;;;;5119381;28;20181;-79
2023/02/04 14:18:44;;;;;;;4.80;2.50;;;5.10;99.90;;;;;;5115563;28;20284;-80
2023/02/04 14:21:10;;;;;;;9.20;2.60;;;5.30;99.90;;;;;;5114946;28;20525;-79
2023/02/04 14:23:36;;;;;;;11.93;3.40;;;5.40;99.90;;;;;;5116686;28;20206;-79
2023/02/04 14:26:02;;;;;;;10.97;5.43;;;5.40;99.90;;;;;;5115855;28;20176;-80
2023/02/04 14:28:27;;;;;;;5.57;3.27;;;5.30;99.90;;;;;;5116690;28;20178;-82
2023/02/04 14:30:55;;;;;;;6.13;2.27;;;5.40;99.90;;;;;;5116011;28;20181;-80
2023/02/04 14:33:21;;;;;;;9.47;3.13;;;5.30;99.90;;;;;;5115199;28;20300;-80
2023/02/04 14:35:47;;;;;;;9.73;3.23;;;5.40;99.90;;;;;;5117173;28;20194;-80
2023/02/04 14:38:14;;;;;;;5.87;2.30;;;5.60;99.90;;;;;;5115466;28;20224;-80
2023/02/04 14:40:41;;;;;;;5.03;3.10;;;5.60;99.90;;;;;;5116563;28;20166;-80
2023/02/04 14:43:09;;;;;;;4.77;2.53;;;5.50;99.90;;;;;;5115702;28;20201;-80
2023/02/04 14:45:36;;;;;;;10.30;4.20;;;5.20;99.90;;;;;;5113854;28;20221;-79
2023/02/04 14:48:01;;;;;;;8.30;3.53;;;5.20;99.90;;;;;;5113197;28;20541;-79
2023/02/04 14:50:29;;;;;;;7.40;2.90;;;5.30;99.90;;;;;;5114132;28;20250;-79
2023/02/04 14:52:55;;;;;;;8.43;2.20;;;5.40;99.90;;;;;;5115541;28;20223;-79
2023/02/04 14:55:22;;;;;;;8.53;2.63;;;5.30;99.90;;;;;;5114995;28;20170;-80
2023/02/04 14:57:48;;;;;;;7.40;2.60;;;5.20;99.90;;;;;;5115026;28;20170;-79
2023/02/04 15:00:14;;;;;;;8.80;3.83;;;5.10;99.90;;;;;;5115693;28;20162;-79
2023/02/04 15:02:41;;;;;;;6.43;2.43;;;5.00;99.90;;;;;;5113978;28;20201;-79
2023/02/04 15:05:07;;;;;;;11.47;3.70;;;4.90;99.90;;;;;;5103335;28;20254;-79
2023/02/04 15:07:33;;;;;;;6.30;3.03;;;4.90;99.90;;;;;;5100467;28;20226;-79
2023/02/04 15:09:59;;;;;;;11.27;4.67;;;4.80;99.90;;;;;;5100364;28;20185;-78
